Time;durP1;ratioP1;P1;durP2;ratioP2;P2;SDS_P1;SDS_P2;PMS_P1;PMS_P2;Temp;Humidity;BMP_temperature;BMP_pressure;BME280_temperature;BME280_humidity;BME280_pressure;Samples;Min_cycle;Max_cycle;Signal;HPM_P1;HPM_P2
2021/05/21 00:01:52;;;;;;;6.60;3.65;;;12.10;1.00;;;;;;5042902;28;20136;-62
2021/05/21 00:04:41;;;;;;;5.50;3.53;;;12.00;1.00;;;;;;5044458;28;20053;-62
2021/05/21 00:07:34;;;;;;;5.90;3.63;;;12.00;1.00;;;;;;5040638;28;20057;-62
2021/05/21 00:10:26;;;;;;;6.32;3.42;;;11.90;1.00;;;;;;5043101;28;20064;-62
2021/05/21 00:13:15;;;;;;;5.82;3.22;;;11.90;1.00;;;;;;5045580;28;20561;-63
2021/05/21 00:16:03;;;;;;;6.63;3.20;;;12.00;1.00;;;;;;5044269;28;20045;-62
2021/05/21 00:18:52;;;;;;;6.82;3.08;;;12.00;1.00;;;;;;5042752;28;20162;-62
2021/05/21 00:21:40;;;;;;;5.25;3.35;;;12.00;1.00;;;;;;5043904;28;20049;-63
2021/05/21 00:24:28;;;;;;;4.78;2.90;;;12.00;1.00;;;;;;5045376;28;20052;-63
2021/05/21 00:27:23;;;;;;;6.13;2.33;;;12.00;1.00;;;;;;5040049;28;20044;-63
2021/05/21 00:30:14;;;;;;;3.47;2.22;;;12.00;1.00;;;;;;5046805;28;20049;-62
2021/05/21 00:33:02;;;;;;;3.55;2.20;;;12.00;1.00;;;;;;5046833;28;20040;-62
2021/05/21 00:35:50;;;;;;;3.33;1.80;;;12.00;1.00;;;;;;5047367;28;20048;-62
2021/05/21 00:38:38;;;;;;;3.03;1.92;;;12.00;1.00;;;;;;5045856;28;20080;-63
2021/05/21 00:41:26;;;;;;;3.17;1.60;;;12.00;1.00;;;;;;5046044;28;20060;-62
2021/05/21 00:44:15;;;;;;;2.70;1.70;;;12.00;1.00;;;;;;5048377;28;20497;-63
2021/05/21 00:47:04;;;;;;;5.15;1.95;;;12.10;1.00;;;;;;5046419;28;20525;-63
2021/05/21 00:49:53;;;;;;;3.63;1.50;;;12.10;1.00;;;;;;5034246;28;20048;-62
2021/05/21 00:52:44;;;;;;;3.00;1.23;;;12.00;1.00;;;;;;5043780;28;20093;-64
2021/05/21 00:55:33;;;;;;;2.40;1.50;;;11.90;1.00;;;;;;5043800;28;20053;-63
2021/05/21 00:58:21;;;;;;;1.45;1.30;;;11.80;1.00;;;;;;5043977;28;20053;-64
2021/05/21 01:01:09;;;;;;;2.63;1.45;;;11.80;1.00;;;;;;5047453;28;20045;-64
2021/05/21 01:03:58;;;;;;;4.40;1.65;;;11.90;1.00;;;;;;5047451;28;20033;-62
2021/05/21 01:06:46;;;;;;;3.20;1.67;;;11.90;1.00;;;;;;5045821;28;20076;-62
2021/05/21 01:09:34;;;;;;;1.80;1.60;;;11.90;1.00;;;;;;5046310;28;20132;-63
2021/05/21 01:12:23;;;;;;;2.78;1.58;;;11.90;1.00;;;;;;5046898;28;20056;-63
2021/05/21 01:15:13;;;;;;;3.20;1.70;;;11.90;1.00;;;;;;5048206;28;20045;-63
2021/05/21 01:18:01;;;;;;;2.60;1.73;;;11.80;1.00;;;;;;5044257;28;20461;-62
2021/05/21 01:20:49;;;;;;;3.78;2.35;;;11.80;1.00;;;;;;5046050;28;20049;-63
2021/05/21 01:23:37;;;;;;;4.60;2.70;;;11.70;1.00;;;;;;5046506;28;20048;-63
2021/05/21 01:26:25;;;;;;;4.70;2.35;;;11.80;1.00;;;;;;5045583;28;20052;-62
2021/05/21 01:29:14;;;;;;;6.13;2.70;;;11.80;1.00;;;;;;5043167;28;20045;-62
2021/05/21 01:32:02;;;;;;;6.40;2.75;;;11.70;1.00;;;;;;5045329;28;20079;-62
2021/05/21 01:34:50;;;;;;;4.63;2.20;;;11.70;1.00;;;;;;5045949;28;20060;-62
2021/05/21 01:37:43;;;;;;;7.18;1.77;;;11.70;1.00;;;;;;5045584;28;20057;-63
2021/05/21 01:40:32;;;;;;;3.13;2.15;;;11.80;1.00;;;;;;5044815;28;20595;-62
2021/05/21 01:43:20;;;;;;;3.42;1.77;;;11.70;1.00;;;;;;5045225;28;20045;-63
2021/05/21 01:46:08;;;;;;;4.38;1.70;;;11.70;1.00;;;;;;5046511;28;20048;-62
2021/05/21 01:48:56;;;;;;;2.00;1.30;;;11.70;1.00;;;;;;5059111;28;20045;-63
2021/05/21 01:51:53;;;;;;;2.22;1.60;;;11.70;1.00;;;;;;5045253;28;20508;-62
2021/05/21 01:54:42;;;;;;;2.15;1.60;;;11.70;1.00;;;;;;5045582;28;20066;-62
2021/05/21 01:57:31;;;;;;;2.60;1.70;;;11.70;1.00;;;;;;5046046;28;20408;-63
2021/05/21 02:00:19;;;;;;;2.85;1.42;;;11.60;1.00;;;;;;5047373;28;20142;-62
2021/05/21 02:03:07;;;;;;;1.85;1.45;;;11.70;1.00;;;;;;5047569;28;20064;-62
2021/05/21 02:05:55;;;;;;;1.60;1.20;;;11.70;1.00;;;;;;5044500;28;20120;-64
2021/05/21 02:08:43;;;;;;;2.03;1.20;;;11.70;1.00;;;;;;5042994;28;20629;-63
2021/05/21 02:11:32;;;;;;;3.67;1.55;;;11.70;1.00;;;;;;5046311;28;20095;-63
2021/05/21 02:14:20;;;;;;;3.67;1.20;;;11.70;1.00;;;;;;5045152;28;20082;-63
2021/05/21 02:17:08;;;;;;;3.80;1.30;;;11.70;1.00;;;;;;5046056;28;20060;-63
2021/05/21 02:19:58;;;;;;;1.27;1.17;;;11.60;1.00;;;;;;5045191;28;20041;-63
2021/05/21 02:22:46;;;;;;;2.05;1.27;;;11.60;1.00;;;;;;5045132;28;20048;-64
2021/05/21 02:25:34;;;;;;;3.90;1.30;;;11.50;1.00;;;;;;5042385;28;20045;-63
2021/05/21 02:28:23;;;;;;;2.33;1.38;;;11.50;1.00;;;;;;5044127;28;20545;-63
2021/05/21 02:31:11;;;;;;;1.75;1.10;;;11.50;1.00;;;;;;5046672;28;20041;-62
2021/05/21 02:33:59;;;;;;;2.58;1.20;;;11.50;1.00;;;;;;5045260;28;20121;-62
2021/05/21 02:36:47;;;;;;;1.48;1.10;;;11.40;1.00;;;;;;5044349;28;20070;-63
2021/05/21 02:39:36;;;;;;;1.52;1.10;;;11.50;1.00;;;;;;5043189;28;20053;-62
2021/05/21 02:42:24;;;;;;;2.05;1.20;;;11.50;1.00;;;;;;5044681;28;20049;-63
2021/05/21 02:45:14;;;;;;;3.92;1.27;;;11.50;1.00;;;;;;5046165;28;20063;-63
2021/05/21 02:48:03;;;;;;;2.85;1.10;;;11.50;1.00;;;;;;5043014;28;20045;-62
2021/05/21 02:50:51;;;;;;;1.38;0.98;;;11.40;1.00;;;;;;5021353;28;20062;-62
2021/05/21 02:53:39;;;;;;;3.33;1.10;;;11.50;1.00;;;;;;5044090;28;20093;-62
2021/05/21 02:56:27;;;;;;;4.65;1.52;;;11.40;1.00;;;;;;5044880;28;20045;-62
2021/05/21 02:59:15;;;;;;;3.00;1.20;;;11.50;1.00;;;;;;5041897;28;20059;-62
2021/05/21 03:02:04;;;;;;;3.47;1.45;;;11.50;1.00;;;;;;5043493;28;20466;-62
2021/05/21 03:04:53;;;;;;;1.13;1.00;;;11.60;1.00;;;;;;5045561;28;20065;-63
2021/05/21 03:07:41;;;;;;;2.17;1.55;;;11.60;1.00;;;;;;5043149;28;20175;-64
2021/05/21 03:10:29;;;;;;;2.55;1.38;;;11.70;1.00;;;;;;5048936;28;20067;-62
2021/05/21 03:13:17;;;;;;;2.78;1.27;;;11.80;1.00;;;;;;5046583;28;20057;-62
2021/05/21 03:16:05;;;;;;;1.20;1.00;;;11.90;1.00;;;;;;5047332;28;20059;-62
2021/05/21 03:18:54;;;;;;;3.88;1.30;;;11.90;1.00;;;;;;5043035;28;20044;-62
2021/05/21 03:21:42;;;;;;;2.38;1.25;;;11.90;1.00;;;;;;5046290;28;20461;-62
2021/05/21 03:24:30;;;;;;;2.60;1.70;;;11.90;1.00;;;;;;5046512;28;20045;-62
2021/05/21 03:27:18;;;;;;;4.18;1.40;;;11.90;1.00;;;;;;5043515;28;20059;-62
2021/05/21 03:30:08;;;;;;;1.60;1.05;;;12.00;1.00;;;;;;5046508;28;20110;-62
2021/05/21 03:32:56;;;;;;;2.30;1.33;;;12.00;1.00;;;;;;5048895;28;20099;-61
2021/05/21 03:35:45;;;;;;;1.52;1.13;;;12.00;1.00;;;;;;5046442;28;20174;-61
2021/05/21 03:38:33;;;;;;;2.38;1.10;;;11.90;1.00;;;;;;5040527;28;20103;-62
2021/05/21 03:41:21;;;;;;;4.15;1.60;;;11.90;1.00;;;;;;5046291;28;20144;-62
2021/05/21 03:44:09;;;;;;;3.60;1.30;;;11.90;1.00;;;;;;5045586;28;20052;-61
2021/05/21 03:46:58;;;;;;;4.13;1.63;;;11.80;1.00;;;;;;5044796;28;20393;-62
2021/05/21 03:49:46;;;;;;;2.55;1.40;;;11.80;1.00;;;;;;5041311;28;20045;-62
2021/05/21 03:52:35;;;;;;;1.45;1.05;;;11.80;1.00;;;;;;5043536;28;20555;-62
2021/05/21 03:55:23;;;;;;;7.03;1.65;;;11.70;1.00;;;;;;5045255;28;20060;-62
2021/05/21 03:58:11;;;;;;;3.80;1.52;;;11.80;1.00;;;;;;5042222;28;20091;-63
2021/05/21 04:00:59;;;;;;;3.95;1.50;;;11.60;1.00;;;;;;5030466;28;20087;-62
2021/05/21 04:03:47;;;;;;;2.85;1.50;;;11.60;1.00;;;;;;5044372;28;20076;-63
2021/05/21 04:06:35;;;;;;;3.97;1.75;;;11.60;1.00;;;;;;5047198;28;20049;-63
2021/05/21 04:09:24;;;;;;;4.35;2.00;;;11.60;1.00;;;;;;5046768;28;20179;-61
2021/05/21 04:12:12;;;;;;;3.08;1.92;;;11.60;1.00;;;;;;5048395;28;20076;-63
2021/05/21 04:15:00;;;;;;;4.13;2.08;;;11.60;1.00;;;;;;5048373;28;20063;-62
2021/05/21 04:17:48;;;;;;;5.28;1.80;;;11.70;1.00;;;;;;5046536;28;20839;-62
2021/05/21 04:20:36;;;;;;;2.65;1.70;;;11.80;1.00;;;;;;5050404;28;20049;-63
2021/05/21 04:23:24;;;;;;;3.13;1.70;;;11.80;1.00;;;;;;5050564;28;20052;-62
2021/05/21 04:26:12;;;;;;;3.28;1.73;;;11.80;1.00;;;;;;5043462;28;20420;-62
2021/05/21 04:29:01;;;;;;;4.68;1.60;;;11.90;1.00;;;;;;5028009;28;20053;-62
2021/05/21 04:31:49;;;;;;;3.60;1.80;;;11.90;1.00;;;;;;5059563;28;20118;-63
2021/05/21 04:34:37;;;;;;;3.20;1.80;;;12.00;1.00;;;;;;5049804;28;20135;-62
2021/05/21 04:37:25;;;;;;;2.28;1.58;;;12.00;1.00;;;;;;5050146;28;20076;-62
2021/05/21 04:40:14;;;;;;;6.60;2.75;;;12.10;1.00;;;;;;5046775;28;20652;-63
2021/05/21 04:43:04;;;;;;;2.33;1.75;;;12.10;1.00;;;;;;5045593;28;20037;-62
2021/05/21 04:45:52;;;;;;;4.45;2.17;;;12.20;1.00;;;;;;5045759;28;20429;-62
2021/05/21 04:48:41;;;;;;;2.78;1.88;;;12.30;1.00;;;;;;5047296;28;20080;-62
2021/05/21 04:51:29;;;;;;;5.32;2.03;;;12.40;1.00;;;;;;5046312;28;20052;-62
2021/05/21 04:54:19;;;;;;;2.85;1.80;;;12.50;1.00;;;;;;5046453;28;20099;-62
2021/05/21 04:57:07;;;;;;;3.97;1.60;;;12.60;1.00;;;;;;5047727;28;20041;-63
2021/05/21 04:59:56;;;;;;;1.67;1.05;;;12.70;1.00;;;;;;5046071;28;20094;-63
2021/05/21 05:02:44;;;;;;;1.48;1.13;;;12.90;1.00;;;;;;5047829;28;20048;-62
2021/05/21 05:05:32;;;;;;;2.38;0.90;;;13.00;1.00;;;;;;5045133;28;20052;-63
2021/05/21 05:08:20;;;;;;;6.75;1.15;;;13.10;1.00;;;;;;5043223;28;20053;-61
2021/05/21 05:11:08;;;;;;;4.32;1.15;;;13.20;1.00;;;;;;5045670;28;20598;-62
2021/05/21 05:13:56;;;;;;;3.42;0.70;;;13.30;1.00;;;;;;5048643;28;20044;-63
2021/05/21 05:16:45;;;;;;;2.35;0.90;;;13.30;1.00;;;;;;5045696;28;20519;-62
2021/05/21 05:19:33;;;;;;;2.58;0.88;;;13.50;1.00;;;;;;5041785;28;20048;-62
2021/05/21 05:22:21;;;;;;;1.45;1.08;;;13.50;1.00;;;;;;5047216;28;20431;-62
2021/05/21 05:25:11;;;;;;;2.75;0.75;;;13.70;1.00;;;;;;5045345;28;20045;-62
2021/05/21 05:28:00;;;;;;;1.98;0.73;;;13.70;1.00;;;;;;5049456;28;20045;-63
2021/05/21 05:30:48;;;;;;;6.38;1.10;;;13.70;1.00;;;;;;5032860;28;20049;-63
2021/05/21 05:33:37;;;;;;;3.38;0.90;;;13.80;1.00;;;;;;5045548;28;20049;-62
2021/05/21 05:36:25;;;;;;;1.55;0.85;;;13.80;1.00;;;;;;5043494;28;20137;-62
2021/05/21 05:39:13;;;;;;;6.90;1.15;;;13.80;1.00;;;;;;5044168;28;20049;-63
2021/05/21 05:42:01;;;;;;;4.63;1.02;;;13.90;1.00;;;;;;5046358;28;20053;-62
2021/05/21 05:44:49;;;;;;;2.88;0.77;;;13.90;1.00;;;;;;5046383;28;20037;-61
2021/05/21 05:47:37;;;;;;;5.45;1.10;;;14.00;1.00;;;;;;5045361;28;20048;-63
2021/05/21 05:50:26;;;;;;;1.85;0.70;;;14.00;1.00;;;;;;5045783;28;20150;-63
2021/05/21 05:53:15;;;;;;;2.28;0.80;;;14.10;1.00;;;;;;5043202;28;20040;-62
2021/05/21 05:56:04;;;;;;;2.10;0.80;;;14.10;1.00;;;;;;5046255;28;20516;-62
2021/05/21 05:58:52;;;;;;;1.55;1.10;;;14.10;1.00;;;;;;5042000;28;20041;-63
2021/05/21 06:01:40;;;;;;;6.63;1.23;;;14.20;1.00;;;;;;5047171;28;20543;-62
2021/05/21 06:04:28;;;;;;;2.35;0.80;;;14.30;1.00;;;;;;5043948;28;20044;-63
2021/05/21 06:07:18;;;;;;;2.60;1.00;;;14.30;1.00;;;;;;5046882;28;20068;-62
2021/05/21 06:10:07;;;;;;;3.92;0.88;;;14.40;1.00;;;;;;5046536;28;20159;-63
2021/05/21 06:12:59;;;;;;;3.78;0.90;;;14.50;1.00;;;;;;5047221;28;20476;-62
2021/05/21 06:15:47;;;;;;;2.63;1.08;;;14.50;1.00;;;;;;5047035;28;20054;-63
2021/05/21 06:18:36;;;;;;;3.22;1.02;;;14.70;1.00;;;;;;5043709;28;20045;-63
2021/05/21 06:21:25;;;;;;;2.13;1.25;;;14.80;1.00;;;;;;5044949;28;20112;-62
2021/05/21 06:24:16;;;;;;;8.43;0.75;;;14.70;1.00;;;;;;5046259;28;20045;-62
2021/05/21 06:27:18;;;;;;;5.72;1.85;;;14.80;1.00;;;;;;5043575;28;20601;-62
2021/05/21 06:30:11;;;;;;;3.22;0.88;;;14.90;1.00;;;;;;5047138;28;20139;-61
2021/05/21 06:32:59;;;;;;;2.38;0.90;;;15.10;1.00;;;;;;5044464;28;20053;-62
2021/05/21 06:35:49;;;;;;;3.60;0.73;;;15.20;1.00;;;;;;5043489;28;20497;-62
2021/05/21 06:38:37;;;;;;;2.70;0.82;;;15.20;1.00;;;;;;5042912;28;20076;-62
2021/05/21 06:41:26;;;;;;;2.75;1.10;;;15.20;1.00;;;;;;5044353;28;20507;-63
2021/05/21 06:44:14;;;;;;;0.85;0.65;;;15.30;1.00;;;;;;5044998;28;20111;-62
2021/05/21 06:47:01;;;;;;;2.22;0.68;;;15.20;1.00;;;;;;5045402;28;20417;-63
2021/05/21 06:49:50;;;;;;;0.95;0.60;;;15.30;1.00;;;;;;5042240;28;20056;-62
2021/05/21 06:52:38;;;;;;;1.85;0.75;;;15.30;1.00;;;;;;5044051;28;20053;-62
2021/05/21 06:55:27;;;;;;;2.92;0.70;;;15.20;1.00;;;;;;5043633;28;20420;-62
2021/05/21 06:58:17;;;;;;;3.00;0.77;;;15.30;1.00;;;;;;5041817;28;20036;-62
2021/05/21 07:01:05;;;;;;;4.63;0.90;;;15.40;1.00;;;;;;5043704;28;20145;-62
2021/05/21 07:03:53;;;;;;;3.95;0.80;;;15.50;1.00;;;;;;5046623;28;20045;-62
2021/05/21 07:06:41;;;;;;;2.10;0.98;;;15.60;1.00;;;;;;5042983;28;20860;-62
2021/05/21 07:09:28;;;;;;;245.88;128.13;;;15.80;1.00;;;;;;5040987;28;20424;-63
2021/05/21 07:12:17;;;;;;;6.78;2.75;;;15.70;1.00;;;;;;5044737;28;20501;-61
2021/05/21 07:15:07;;;;;;;2.97;1.60;;;15.90;1.00;;;;;;5045884;28;20045;-61
2021/05/21 07:17:55;;;;;;;3.92;1.50;;;15.90;1.00;;;;;;5043018;28;20413;-63
2021/05/21 07:20:45;;;;;;;3.83;1.20;;;15.90;1.00;;;;;;5045051;28;20124;-62
2021/05/21 07:23:34;;;;;;;1.48;0.80;;;16.10;1.00;;;;;;5042840;28;20124;-62
2021/05/21 07:26:23;;;;;;;2.47;1.10;;;16.10;1.00;;;;;;5042956;28;20049;-63
2021/05/21 07:29:11;;;;;;;2.80;0.98;;;16.00;1.00;;;;;;5042240;28;20598;-63
2021/05/21 07:32:12;;;;;;;1.83;0.90;;;16.10;1.00;;;;;;5047719;28;20254;-62
2021/05/21 07:35:01;;;;;;;2.33;0.90;;;15.90;1.00;;;;;;5043278;28;20068;-62
2021/05/21 07:37:49;;;;;;;2.40;1.23;;;16.00;1.00;;;;;;5044370;28;20053;-63
2021/05/21 07:40:43;;;;;;;2.75;1.10;;;15.80;1.00;;;;;;5043622;28;20048;-62
2021/05/21 07:43:36;;;;;;;2.50;0.90;;;16.00;1.00;;;;;;5044947;28;20049;-63
2021/05/21 07:46:24;;;;;;;3.00;1.00;;;15.80;1.00;;;;;;5043586;28;20061;-62
2021/05/21 07:49:13;;;;;;;3.83;1.33;;;15.70;1.00;;;;;;5042127;28;20264;-62
2021/05/21 07:52:01;;;;;;;3.78;1.13;;;15.70;1.00;;;;;;5030604;28;20138;-62
2021/05/21 07:54:49;;;;;;;2.70;1.27;;;15.70;1.00;;;;;;5043968;28;20455;-63
2021/05/21 07:57:37;;;;;;;2.38;1.10;;;15.60;1.00;;;;;;5041261;28;20045;-62
2021/05/21 08:00:25;;;;;;;1.83;1.00;;;15.60;1.00;;;;;;5041845;28;20048;-62
2021/05/21 08:03:15;;;;;;;5.25;0.98;;;15.70;1.00;;;;;;5045599;28;20044;-63
2021/05/21 08:06:04;;;;;;;1.65;0.88;;;15.70;1.00;;;;;;5043821;28;20045;-62
2021/05/21 08:08:52;;;;;;;4.10;1.15;;;15.70;1.00;;;;;;5040463;28;20131;-62
2021/05/21 08:11:40;;;;;;;2.55;1.17;;;15.60;1.00;;;;;;5042624;28;20057;-63
2021/05/21 08:14:28;;;;;;;4.75;1.20;;;15.60;1.00;;;;;;5043565;28;20041;-62
2021/05/21 08:17:16;;;;;;;4.43;0.90;;;15.60;1.00;;;;;;5046922;28;20044;-62
2021/05/21 08:20:05;;;;;;;4.78;0.88;;;15.60;1.00;;;;;;5044051;28;20064;-62
2021/05/21 08:22:55;;;;;;;3.28;0.70;;;15.70;1.00;;;;;;5044966;28;20045;-63
2021/05/21 08:25:43;;;;;;;1.58;0.85;;;15.70;1.00;;;;;;5041518;28;20103;-61
2021/05/21 08:28:31;;;;;;;3.85;1.13;;;15.60;1.00;;;;;;5040564;28;20064;-63
2021/05/21 08:31:20;;;;;;;4.80;1.00;;;15.70;1.00;;;;;;5043964;28;20453;-62
2021/05/21 08:34:08;;;;;;;6.63;1.13;;;15.70;1.00;;;;;;5044545;28;20191;-62
2021/05/21 08:36:56;;;;;;;4.43;1.20;;;15.70;1.00;;;;;;5042488;28;20584;-62
2021/05/21 08:39:44;;;;;;;3.15;0.90;;;15.60;1.00;;;;;;5040441;28;20130;-63
2021/05/21 08:42:37;;;;;;;3.47;1.20;;;15.60;1.00;;;;;;5044591;28;20053;-63
2021/05/21 08:45:28;;;;;;;1.58;0.93;;;15.60;1.00;;;;;;5041692;28;20045;-63
2021/05/21 08:48:19;;;;;;;5.60;1.10;;;15.70;1.00;;;;;;5042930;28;20044;-63
2021/05/21 08:51:09;;;;;;;2.05;0.70;;;15.80;1.00;;;;;;5045615;28;20525;-63
2021/05/21 08:53:57;;;;;;;3.08;0.80;;;15.70;1.00;;;;;;5046284;28;20090;-62
2021/05/21 08:56:46;;;;;;;3.55;1.00;;;15.70;1.00;;;;;;5052468;28;20048;-63
2021/05/21 08:59:34;;;;;;;1.42;0.70;;;15.80;1.00;;;;;;5046815;28;20140;-63
2021/05/21 09:02:24;;;;;;;5.10;1.25;;;15.70;1.00;;;;;;5045042;28;20061;-63
2021/05/21 09:05:13;;;;;;;1.65;0.88;;;15.60;1.00;;;;;;5051066;28;20485;-62
2021/05/21 09:08:01;;;;;;;3.67;1.48;;;15.60;1.00;;;;;;5045377;28;20052;-62
2021/05/21 09:10:49;;;;;;;9.77;1.10;;;15.70;1.00;;;;;;5047034;28;20045;-62
2021/05/21 09:13:37;;;;;;;3.72;1.15;;;15.70;1.00;;;;;;5049243;28;20055;-62
2021/05/21 09:16:26;;;;;;;2.72;1.15;;;15.70;1.00;;;;;;5044683;28;20511;-62
2021/05/21 09:19:15;;;;;;;1.95;1.10;;;15.70;1.00;;;;;;5044741;28;20053;-62
2021/05/21 09:22:05;;;;;;;7.10;1.25;;;15.60;1.00;;;;;;5047909;28;20051;-62
2021/05/21 09:24:54;;;;;;;4.53;1.30;;;15.70;1.00;;;;;;5045014;28;20401;-62
2021/05/21 09:27:42;;;;;;;3.17;0.98;;;15.80;1.00;;;;;;5043148;28;20427;-63
2021/05/21 09:30:31;;;;;;;1.90;0.80;;;15.90;1.00;;;;;;5046843;28;20041;-63
2021/05/21 09:33:19;;;;;;;2.38;0.90;;;15.90;1.00;;;;;;5050025;28;20202;-63
2021/05/21 09:36:06;;;;;;;3.15;1.10;;;16.00;1.00;;;;;;5050357;28;20059;-63
2021/05/21 09:38:55;;;;;;;3.80;0.98;;;16.10;1.00;;;;;;5042288;28;20126;-62
2021/05/21 09:42:05;;;;;;;2.05;0.88;;;16.10;1.00;;;;;;5046746;28;20049;-63
2021/05/21 09:44:53;;;;;;;3.53;0.88;;;16.20;1.00;;;;;;5044699;28;20226;-62
2021/05/21 09:47:54;;;;;;;8.98;1.27;;;16.10;1.00;;;;;;5047669;28;20053;-62
2021/05/21 09:50:44;;;;;;;4.70;1.27;;;16.30;1.00;;;;;;5049311;28;20060;-62
2021/05/21 09:53:33;;;;;;;6.00;0.95;;;16.30;1.00;;;;;;5045229;28;20056;-62
2021/05/21 09:56:24;;;;;;;10.45;0.98;;;16.30;1.00;;;;;;5041536;28;20045;-63
2021/05/21 09:59:12;;;;;;;7.82;1.40;;;16.20;1.00;;;;;;5043640;28;20130;-62
2021/05/21 10:02:17;;;;;;;3.08;0.85;;;16.20;1.00;;;;;;5044774;28;20429;-62
2021/05/21 10:05:18;;;;;;;2.75;0.90;;;16.30;1.00;;;;;;5048555;28;20049;-62
2021/05/21 10:08:06;;;;;;;2.78;1.27;;;16.20;1.00;;;;;;5044559;28;20074;-62
2021/05/21 10:10:55;;;;;;;3.75;0.77;;;16.10;1.00;;;;;;5045194;28;20067;-63
2021/05/21 10:13:45;;;;;;;3.08;0.80;;;16.10;1.00;;;;;;5048232;28;20597;-62
2021/05/21 10:16:33;;;;;;;2.25;0.80;;;16.10;1.00;;;;;;5046424;28;20045;-63
2021/05/21 10:19:21;;;;;;;1.45;0.70;;;16.30;1.00;;;;;;5042617;28;20049;-62
2021/05/21 10:22:12;;;;;;;3.42;0.70;;;16.30;1.00;;;;;;5044374;28;20072;-62
2021/05/21 10:25:06;;;;;;;4.07;0.80;;;16.20;1.00;;;;;;5045808;28;20512;-62
2021/05/21 10:27:56;;;;;;;2.08;0.68;;;16.00;1.00;;;;;;5044150;28;20509;-62
2021/05/21 10:30:45;;;;;;;3.53;0.90;;;15.90;1.00;;;;;;5043277;28;20048;-62
2021/05/21 10:33:36;;;;;;;4.35;0.73;;;15.80;1.00;;;;;;5044226;28;20049;-63
2021/05/21 10:36:43;;;;;;;3.17;0.70;;;15.90;1.00;;;;;;5045058;28;20094;-63
2021/05/21 10:40:02;;;;;;;2.38;0.60;;;15.80;1.00;;;;;;5041258;28;20065;-62
2021/05/21 10:43:15;;;;;;;0.95;0.40;;;15.80;1.00;;;;;;5043983;28;20049;-64
2021/05/21 10:46:28;;;;;;;0.88;0.60;;;15.90;1.00;;;;;;5042751;28;20132;-62
2021/05/21 10:49:24;;;;;;;3.72;0.90;;;15.90;1.00;;;;;;5040526;28;20576;-63
2021/05/21 10:52:13;;;;;;;1.77;0.70;;;15.90;1.00;;;;;;5044486;28;20052;-63
2021/05/21 10:55:04;;;;;;;2.85;0.90;;;15.90;1.00;;;;;;5045096;28;20041;-63
2021/05/21 10:57:59;;;;;;;2.03;0.55;;;15.90;1.00;;;;;;5043827;28;20064;-64
2021/05/21 11:01:15;;;;;;;1.10;0.50;;;16.10;1.00;;;;;;5040842;28;20126;-63
2021/05/21 11:04:08;;;;;;;1.80;1.00;;;16.30;1.00;;;;;;5044725;28;20049;-63
2021/05/21 11:06:56;;;;;;;2.38;0.70;;;16.10;1.00;;;;;;5042701;28;20458;-63
2021/05/21 11:09:47;;;;;;;9.07;0.65;;;16.30;1.00;;;;;;5040995;28;20126;-63
2021/05/21 11:12:51;;;;;;;2.22;1.02;;;16.40;1.00;;;;;;5046508;28;20052;-62
2021/05/21 11:15:42;;;;;;;1.60;0.65;;;16.40;1.00;;;;;;5044595;28;20496;-63
2021/05/21 11:18:31;;;;;;;3.25;0.95;;;16.50;1.00;;;;;;5043347;28;20041;-62
2021/05/21 11:21:19;;;;;;;2.47;0.70;;;16.40;1.00;;;;;;5044149;28;20504;-62
2021/05/21 11:24:09;;;;;;;1.95;0.90;;;16.50;1.00;;;;;;5045756;28;20053;-63
2021/05/21 11:27:01;;;;;;;6.57;1.10;;;16.30;1.00;;;;;;5045372;28;20416;-62
2021/05/21 11:29:52;;;;;;;1.50;0.80;;;16.50;1.00;;;;;;5054272;28;20257;-64
2021/05/21 11:32:41;;;;;;;1.70;0.82;;;16.50;1.00;;;;;;5041169;28;20064;-63
2021/05/21 11:35:29;;;;;;;2.90;1.17;;;16.70;1.00;;;;;;5040723;28;20059;-63
2021/05/21 11:38:23;;;;;;;3.17;0.73;;;16.90;1.00;;;;;;5043577;28;20115;-63
2021/05/21 11:41:12;;;;;;;1.35;0.77;;;16.90;1.00;;;;;;5047077;28;20057;-63
2021/05/21 11:44:03;;;;;;;1.80;0.60;;;17.10;1.00;;;;;;5047138;28;20049;-63
2021/05/21 11:46:57;;;;;;;1.52;0.60;;;17.30;1.00;;;;;;5044316;28;20159;-63
2021/05/21 11:49:45;;;;;;;1.88;0.80;;;17.00;1.00;;;;;;5042283;28;20128;-61
2021/05/21 11:52:33;;;;;;;1.23;0.60;;;17.20;1.00;;;;;;5025181;28;20044;-63
2021/05/21 11:55:30;;;;;;;2.47;0.77;;;17.40;1.00;;;;;;5041088;28;20504;-63
2021/05/21 11:58:23;;;;;;;5.75;0.70;;;17.20;1.00;;;;;;5044633;28;20048;-62
2021/05/21 12:01:11;;;;;;;3.17;0.70;;;17.20;1.00;;;;;;5043073;28;20037;-62
2021/05/21 12:04:04;;;;;;;1.35;0.57;;;17.20;1.00;;;;;;5045982;28;20416;-63
2021/05/21 12:06:52;;;;;;;1.25;0.70;;;17.30;1.00;;;;;;5041744;28;20531;-62
2021/05/21 12:09:40;;;;;;;1.05;0.65;;;17.50;1.00;;;;;;5027485;28;20472;-63
2021/05/21 12:12:29;;;;;;;1.25;0.88;;;17.50;1.00;;;;;;5044725;28;20060;-61
2021/05/21 12:15:19;;;;;;;1.92;0.70;;;17.50;1.00;;;;;;5043208;28;20064;-63
2021/05/21 12:18:07;;;;;;;2.28;0.70;;;17.50;1.00;;;;;;5044509;28;20053;-63
2021/05/21 12:20:57;;;;;;;1.55;0.70;;;17.60;1.00;;;;;;5043691;28;20282;-62
2021/05/21 12:23:45;;;;;;;1.95;0.80;;;17.70;1.00;;;;;;5041508;28;20076;-62
2021/05/21 12:26:35;;;;;;;2.35;0.70;;;17.50;1.00;;;;;;5044460;28;20415;-62
2021/05/21 12:29:27;;;;;;;2.42;0.60;;;17.30;1.00;;;;;;5045041;28;20057;-63
2021/05/21 12:32:15;;;;;;;1.73;0.50;;;17.30;1.00;;;;;;5047586;28;20103;-62
2021/05/21 12:35:08;;;;;;;1.95;0.60;;;17.30;1.00;;;;;;5045456;28;20178;-63
2021/05/21 12:38:03;;;;;;;1.92;0.45;;;16.90;1.00;;;;;;5045809;28;20053;-63
2021/05/21 12:40:52;;;;;;;1.92;0.77;;;17.00;1.00;;;;;;5047035;28;20033;-63
2021/05/21 12:43:40;;;;;;;4.00;0.90;;;17.10;1.00;;;;;;5049160;28;20187;-63
2021/05/21 12:46:28;;;;;;;2.55;0.70;;;16.80;1.00;;;;;;5045559;28;20179;-63
2021/05/21 12:49:17;;;;;;;1.80;0.82;;;16.80;1.00;;;;;;5044471;28;20045;-63
2021/05/21 12:52:07;;;;;;;2.55;0.90;;;16.90;1.00;;;;;;5048619;28;20169;-62
2021/05/21 12:54:55;;;;;;;1.38;0.60;;;17.00;1.00;;;;;;5045897;28;20147;-63
2021/05/21 12:57:44;;;;;;;0.93;0.63;;;17.20;1.00;;;;;;5044100;28;20514;-62
2021/05/21 13:00:32;;;;;;;1.33;0.52;;;17.10;1.00;;;;;;5047441;28;20180;-63
2021/05/21 13:03:20;;;;;;;1.10;0.57;;;17.10;1.00;;;;;;5047531;28;20409;-62
2021/05/21 13:06:08;;;;;;;5.28;0.90;;;17.00;1.00;;;;;;5044717;28;20049;-62
2021/05/21 13:09:02;;;;;;;0.98;0.63;;;16.80;1.00;;;;;;5043312;28;20048;-62
2021/05/21 13:11:53;;;;;;;1.52;0.57;;;16.90;1.00;;;;;;5046935;28;20048;-61
2021/05/21 13:14:44;;;;;;;1.45;0.60;;;17.00;1.00;;;;;;5043408;28;20124;-62
2021/05/21 13:17:36;;;;;;;1.45;0.70;;;17.00;1.00;;;;;;5045503;28;20071;-63
2021/05/21 13:20:26;;;;;;;3.17;1.00;;;17.00;1.00;;;;;;5046304;28;20052;-62
2021/05/21 13:23:20;;;;;;;1.63;0.93;;;17.00;1.00;;;;;;5048578;28;20071;-63
2021/05/21 13:26:08;;;;;;;2.60;0.90;;;16.90;1.00;;;;;;5045209;28;20120;-62
2021/05/21 13:28:57;;;;;;;3.08;0.60;;;16.60;1.00;;;;;;5045277;28;20049;-62
2021/05/21 13:31:47;;;;;;;1.38;0.70;;;16.70;1.00;;;;;;5046512;28;20049;-61
2021/05/21 13:34:35;;;;;;;1.35;0.70;;;16.70;1.00;;;;;;5045188;28;20172;-61
2021/05/21 13:37:23;;;;;;;3.95;0.77;;;16.70;1.00;;;;;;5047813;28;20052;-63
2021/05/21 13:40:12;;;;;;;1.80;0.70;;;16.60;1.00;;;;;;5046335;28;20519;-63
2021/05/21 13:43:00;;;;;;;1.20;0.40;;;16.90;1.00;;;;;;5051161;28;20068;-62
2021/05/21 13:45:49;;;;;;;1.15;0.55;;;16.80;1.00;;;;;;5040451;28;20077;-63
2021/05/21 13:48:38;;;;;;;2.42;0.68;;;16.60;1.00;;;;;;5044918;28;20106;-63
2021/05/21 13:51:26;;;;;;;1.92;0.70;;;16.70;1.00;;;;;;5046663;28;21046;-62
2021/05/21 13:54:13;;;;;;;1.30;0.57;;;16.70;1.00;;;;;;5060021;28;20049;-62
2021/05/21 13:57:09;;;;;;;1.08;0.70;;;16.70;1.00;;;;;;5046714;28;20130;-63
2021/05/21 13:59:57;;;;;;;1.70;0.60;;;16.60;1.00;;;;;;5048463;28;20045;-62
2021/05/21 14:02:47;;;;;;;1.05;0.50;;;16.50;1.00;;;;;;5052975;28;20118;-63
2021/05/21 14:05:35;;;;;;;1.05;0.75;;;16.70;1.00;;;;;;5044940;28;20631;-61
2021/05/21 14:08:23;;;;;;;3.83;0.80;;;16.80;1.00;;;;;;5043895;28;20114;-62
2021/05/21 14:11:12;;;;;;;2.00;0.85;;;16.80;1.00;;;;;;5046965;28;20052;-62
2021/05/21 14:14:02;;;;;;;4.65;1.15;;;16.80;1.00;;;;;;5045939;28;20052;-62
2021/05/21 14:16:50;;;;;;;2.88;0.90;;;16.60;1.00;;;;;;5044262;28;20163;-63
2021/05/21 14:19:41;;;;;;;1.95;1.05;;;16.60;1.00;;;;;;5041046;28;20059;-62
2021/05/21 14:22:29;;;;;;;3.22;0.95;;;16.60;1.00;;;;;;5042365;28;20053;-62
2021/05/21 14:25:21;;;;;;;2.20;0.80;;;16.40;1.00;;;;;;5044996;28;20045;-62
2021/05/21 14:28:09;;;;;;;4.22;0.80;;;16.40;1.00;;;;;;5046367;28;20072;-61
2021/05/21 14:30:57;;;;;;;2.40;0.70;;;16.50;1.00;;;;;;5043501;28;20126;-63
2021/05/21 14:33:48;;;;;;;2.72;1.02;;;16.50;1.00;;;;;;5045696;28;20521;-63
2021/05/21 14:36:37;;;;;;;1.10;0.80;;;16.50;1.00;;;;;;5044239;28;20094;-63
2021/05/21 14:39:29;;;;;;;1.58;1.00;;;16.40;1.00;;;;;;5043867;28;20063;-62
2021/05/21 14:42:17;;;;;;;2.63;1.08;;;16.10;1.00;;;;;;5045576;28;20040;-62
2021/05/21 14:45:06;;;;;;;3.03;0.85;;;16.30;1.00;;;;;;5042419;28;20056;-63
2021/05/21 14:47:54;;;;;;;2.03;1.00;;;16.10;1.00;;;;;;5043403;28;20083;-63
2021/05/21 14:50:44;;;;;;;1.40;0.73;;;16.20;1.00;;;;;;5046161;28;20098;-63
2021/05/21 14:53:32;;;;;;;2.50;0.80;;;16.30;1.00;;;;;;5044271;28;20052;-62
2021/05/21 14:56:21;;;;;;;1.70;0.70;;;16.20;1.00;;;;;;5046128;28;20052;-63